Time;durP1;ratioP1;P1;durP2;ratioP2;P2;SDS_P1;SDS_P2;PMS_P1;PMS_P2;Temp;Humidity;BMP_temperature;BMP_pressure;BME280_temperature;BME280_humidity;BME280_pressure;Samples;Min_cycle;Max_cycle;Signal;HPM_P1;HPM_P2
2023/09/01 00:02:13;;;;;;;;;2.00;2.00;;;;;;;;5102920;27;45228;-79
2023/09/01 00:04:38;;;;;;;;;1.00;1.00;;;;;;;;5084286;27;46207;-78
2023/09/01 00:07:03;;;;;;;;;3.25;2.25;;;;;;;;5102451;27;46358;-78
2023/09/01 00:09:28;;;;;;;;;1.00;1.00;;;;;;;;5102563;27;45360;-78
2023/09/01 00:11:53;;;;;;;;;2.00;1.00;;;;;;;;5102420;27;45222;-78
2023/09/01 00:14:18;;;;;;;;;0.75;0.75;;;;;;;;5102414;27;45469;-79
2023/09/01 00:16:44;;;;;;;;;1.00;1.00;;;;;;;;5102555;27;45394;-78
2023/09/01 00:19:09;;;;;;;;;2.00;0.75;;;;;;;;5102529;27;45297;-79
2023/09/01 00:21:34;;;;;;;;;0.75;0.75;;;;;;;;5102525;27;45161;-77
2023/09/01 00:24:02;;;;;;;;;1.50;1.50;;;;;;;;5083682;27;46071;-78
2023/09/01 00:26:27;;;;;;;;;1.50;1.00;;;;;;;;5083899;27;47368;-78
2023/09/01 00:28:52;;;;;;;;;2.00;2.00;;;;;;;;5097197;27;45283;-78
2023/09/01 00:31:18;;;;;;;;;1.00;1.00;;;;;;;;5063765;28;45354;-78
2023/09/01 00:33:43;;;;;;;;;3.25;1.75;;;;;;;;5063377;28;46224;-79
2023/09/01 00:36:08;;;;;;;;;1.00;1.00;;;;;;;;5081638;28;46338;-78
2023/09/01 00:38:33;;;;;;;;;1.25;0.50;;;;;;;;5081822;28;45351;-78
2023/09/01 00:40:58;;;;;;;;;2.50;2.00;;;;;;;;5081653;28;45283;-79
2023/09/01 00:43:25;;;;;;;;;0.00;0.00;;;;;;;;5081370;28;45418;-79
2023/09/01 00:45:50;;;;;;;;;0.50;0.50;;;;;;;;5081564;28;45390;-80
2023/09/01 00:48:15;;;;;;;;;1.50;1.50;;;;;;;;5081553;28;45330;-79
2023/09/01 00:50:41;;;;;;;;;1.75;1.75;;;;;;;;5081462;28;45305;-79
2023/09/01 00:53:07;;;;;;;;;1.00;1.00;;;;;;;;5062998;28;46917;-79
2023/09/01 00:55:33;;;;;;;;;0.00;0.00;;;;;;;;5080971;28;45483;-79
2023/09/01 00:57:59;;;;;;;;;1.00;1.00;;;;;;;;5063215;28;45264;-78
2023/09/01 01:00:24;;;;;;;;;1.00;1.00;;;;;;;;5081466;28;45339;-78
2023/09/01 01:02:49;;;;;;;;;1.00;0.00;;;;;;;;5081227;28;45293;-80
2023/09/01 01:05:15;;;;;;;;;2.00;1.00;;;;;;;;5081168;28;45315;-77
2023/09/01 01:07:43;;;;;;;;;0.25;0.25;;;;;;;;5081139;28;45329;-78
2023/09/01 01:10:16;;;;;;;;;2.00;0.50;;;;;;;;5060839;28;45343;-78
2023/09/01 01:13:04;;;;;;;;;1.50;0.50;;;;;;;;5042380;28;45860;-77
2023/09/01 01:15:32;;;;;;;;;0.00;0.00;;;;;;;;5042671;28;48022;-77
2023/09/01 01:17:58;;;;;;;;;0.00;0.00;;;;;;;;5060760;28;45461;-79
2023/09/01 01:20:34;;;;;;;;;1.00;1.00;;;;;;;;5042711;28;45606;-78
2023/09/01 01:23:05;;;;;;;;;1.00;0.00;;;;;;;;5072082;28;47556;-78
2023/09/01 01:25:30;;;;;;;;;0.75;0.00;;;;;;;;5080574;28;45292;-79
2023/09/01 01:27:56;;;;;;;;;0.00;0.00;;;;;;;;5080285;28;45491;-78
2023/09/01 01:30:22;;;;;;;;;1.00;1.00;;;;;;;;5098386;27;45460;-79
2023/09/01 01:32:47;;;;;;;;;0.00;0.00;;;;;;;;5100918;27;45320;-77
2023/09/01 01:35:15;;;;;;;;;0.00;0.00;;;;;;;;5101153;27;45708;-78
2023/09/01 01:37:49;;;;;;;;;0.00;0.00;;;;;;;;5101278;27;45330;-78
2023/09/01 01:40:15;;;;;;;;;1.25;1.00;;;;;;;;5082539;27;45410;-78
2023/09/01 01:42:43;;;;;;;;;0.25;0.25;;;;;;;;5082587;27;45933;-77
2023/09/01 01:45:09;;;;;;;;;0.00;0.00;;;;;;;;5100941;27;46188;-78
2023/09/01 01:47:34;;;;;;;;;0.00;0.00;;;;;;;;5100957;27;45321;-78
2023/09/01 01:50:00;;;;;;;;;1.00;1.00;;;;;;;;5082750;27;45362;-78
2023/09/01 01:52:25;;;;;;;;;1.00;0.00;;;;;;;;5100639;27;45548;-78
2023/09/01 01:54:50;;;;;;;;;0.75;0.75;;;;;;;;5100501;27;46715;-78
2023/09/01 01:57:16;;;;;;;;;0.75;0.75;;;;;;;;5100941;27;45337;-79
2023/09/01 01:59:41;;;;;;;;;0.00;0.00;;;;;;;;5100947;27;45479;-79
2023/09/01 02:02:06;;;;;;;;;0.00;0.00;;;;;;;;5100782;27;45310;-79
2023/09/01 02:04:32;;;;;;;;;0.00;0.00;;;;;;;;5082329;27;47323;-78
2023/09/01 02:06:57;;;;;;;;;0.00;0.00;;;;;;;;5100729;27;45348;-78
2023/09/01 02:09:22;;;;;;;;;0.00;0.00;;;;;;;;5082306;27;45492;-78
2023/09/01 02:11:47;;;;;;;;;0.00;0.00;;;;;;;;5100658;27;45406;-78
2023/09/01 02:14:13;;;;;;;;;0.25;0.25;;;;;;;;5082234;27;47854;-79
2023/09/01 02:16:39;;;;;;;;;0.00;0.00;;;;;;;;5100793;27;45248;-78
2023/09/01 02:19:04;;;;;;;;;0.00;0.00;;;;;;;;5100743;27;45548;-78
2023/09/01 02:21:29;;;;;;;;;0.00;0.00;;;;;;;;5100515;27;45448;-79
2023/09/01 02:23:54;;;;;;;;;0.00;0.00;;;;;;;;5100310;27;46297;-78
2023/09/01 02:26:20;;;;;;;;;1.00;0.00;;;;;;;;5100671;27;45148;-79
2023/09/01 02:28:45;;;;;;;;;1.00;0.00;;;;;;;;5096556;27;45287;-79
2023/09/01 02:31:11;;;;;;;;;0.00;0.00;;;;;;;;5080051;28;45496;-79
2023/09/01 02:33:36;;;;;;;;;0.25;0.00;;;;;;;;5079922;28;46045;-79
2023/09/01 02:36:20;;;;;;;;;1.00;1.00;;;;;;;;5079745;28;45323;-78
2023/09/01 02:38:45;;;;;;;;;0.00;0.00;;;;;;;;5080054;28;45310;-78
2023/09/01 02:41:10;;;;;;;;;1.75;0.00;;;;;;;;5061474;28;47006;-79
2023/09/01 02:43:35;;;;;;;;;0.00;0.00;;;;;;;;5061488;28;47338;-78
2023/09/01 02:46:01;;;;;;;;;0.00;0.00;;;;;;;;5079650;28;45329;-78
2023/09/01 02:48:26;;;;;;;;;0.50;0.00;;;;;;;;5079932;28;45296;-78
2023/09/01 02:50:51;;;;;;;;;0.50;0.00;;;;;;;;5079686;28;45320;-78
2023/09/01 02:53:16;;;;;;;;;0.00;0.00;;;;;;;;5061195;28;48684;-79
2023/09/01 02:55:41;;;;;;;;;0.00;0.00;;;;;;;;5079359;28;45500;-79
2023/09/01 02:58:06;;;;;;;;;0.50;0.50;;;;;;;;5061453;28;45185;-79
2023/09/01 03:00:32;;;;;;;;;0.00;0.00;;;;;;;;5079725;28;45216;-79
2023/09/01 03:02:57;;;;;;;;;0.50;0.50;;;;;;;;5079662;28;46555;-78
2023/09/01 03:05:23;;;;;;;;;0.50;0.50;;;;;;;;5060741;28;45876;-78
2023/09/01 03:07:48;;;;;;;;;0.00;0.00;;;;;;;;5061521;28;45363;-78
2023/09/01 03:10:14;;;;;;;;;2.00;1.00;;;;;;;;5079246;28;45327;-78
2023/09/01 03:12:39;;;;;;;;;0.75;0.75;;;;;;;;5079375;28;45291;-79
2023/09/01 03:15:07;;;;;;;;;0.00;0.00;;;;;;;;5079493;28;45322;-79
2023/09/01 03:17:33;;;;;;;;;0.00;0.00;;;;;;;;5061480;28;45350;-79
2023/09/01 03:19:58;;;;;;;;;1.50;0.75;;;;;;;;5079493;28;45333;-79
2023/09/01 03:22:23;;;;;;;;;0.00;0.00;;;;;;;;5079153;28;45539;-79
2023/09/01 03:24:50;;;;;;;;;1.25;0.50;;;;;;;;5079334;28;45352;-78
2023/09/01 03:27:15;;;;;;;;;0.25;0.25;;;;;;;;5061315;28;45348;-78
2023/09/01 03:29:42;;;;;;;;;0.00;0.00;;;;;;;;5090841;27;45555;-79
2023/09/01 03:32:10;;;;;;;;;0.00;0.00;;;;;;;;5099578;27;45285;-78
2023/09/01 03:34:35;;;;;;;;;1.00;1.00;;;;;;;;5099532;27;45436;-79
2023/09/01 03:37:00;;;;;;;;;0.00;0.00;;;;;;;;5099716;27;45503;-78
2023/09/01 03:39:26;;;;;;;;;4.00;1.25;;;;;;;;5099394;27;45437;-79
2023/09/01 03:41:51;;;;;;;;;2.00;1.00;;;;;;;;5080850;27;47375;-79
2023/09/01 03:44:17;;;;;;;;;1.00;1.00;;;;;;;;5099215;27;45275;-79
2023/09/01 03:46:42;;;;;;;;;0.00;0.00;;;;;;;;5100783;27;45373;-78
2023/09/01 03:49:07;;;;;;;;;2.00;0.25;;;;;;;;5084469;27;46552;-79
2023/09/01 03:51:32;;;;;;;;;1.75;1.75;;;;;;;;5102779;27;45479;-78
2023/09/01 03:53:58;;;;;;;;;0.25;0.25;;;;;;;;5102590;27;45426;-78
2023/09/01 03:56:23;;;;;;;;;1.00;0.00;;;;;;;;5084510;27;45602;-79
2023/09/01 03:58:48;;;;;;;;;1.25;1.25;;;;;;;;5102806;27;45331;-78
2023/09/01 04:01:14;;;;;;;;;1.50;1.25;;;;;;;;5084200;27;47478;-78
2023/09/01 04:03:40;;;;;;;;;0.00;0.00;;;;;;;;5102754;27;45341;-78
2023/09/01 04:06:05;;;;;;;;;0.00;0.00;;;;;;;;5102808;27;45241;-79
2023/09/01 04:08:31;;;;;;;;;0.00;0.00;;;;;;;;5084091;27;46239;-79
2023/09/01 04:10:56;;;;;;;;;1.25;1.25;;;;;;;;5102370;27;46020;-79
2023/09/01 04:13:21;;;;;;;;;0.50;0.50;;;;;;;;5102672;27;45320;-79
2023/09/01 04:15:47;;;;;;;;;2.25;1.50;;;;;;;;5102731;27;45450;-79
2023/09/01 04:18:12;;;;;;;;;1.00;1.00;;;;;;;;5102011;27;45496;-79
2023/09/01 04:20:37;;;;;;;;;0.25;0.25;;;;;;;;5102414;27;45413;-79
2023/09/01 04:23:02;;;;;;;;;0.00;0.00;;;;;;;;5102533;27;45263;-79
2023/09/01 04:25:27;;;;;;;;;0.75;0.75;;;;;;;;5095138;27;45325;-79
2023/09/01 04:27:53;;;;;;;;;0.00;0.00;;;;;;;;5081824;28;45375;-79
2023/09/01 04:30:18;;;;;;;;;0.25;0.25;;;;;;;;5098388;27;46479;-79
2023/09/01 04:32:44;;;;;;;;;0.75;0.75;;;;;;;;5102143;27;45556;-79
2023/09/01 04:35:09;;;;;;;;;1.00;1.00;;;;;;;;5102366;27;45334;-79
2023/09/01 04:37:35;;;;;;;;;2.75;1.50;;;;;;;;5102148;27;45261;-78
2023/09/01 04:40:01;;;;;;;;;1.75;0.00;;;;;;;;5101941;27;45476;-79
2023/09/01 04:42:26;;;;;;;;;0.00;0.00;;;;;;;;5083510;27;45891;-78
2023/09/01 04:44:51;;;;;;;;;2.50;2.00;;;;;;;;5102370;27;45355;-79
2023/09/01 04:47:16;;;;;;;;;0.00;0.00;;;;;;;;5083836;27;46969;-80
2023/09/01 04:49:41;;;;;;;;;1.00;1.00;;;;;;;;5101959;27;45236;-79
2023/09/01 04:52:07;;;;;;;;;0.00;0.00;;;;;;;;5083503;27;45311;-78
2023/09/01 04:54:32;;;;;;;;;1.00;1.00;;;;;;;;5101790;27;45349;-79
2023/09/01 04:56:57;;;;;;;;;1.50;1.50;;;;;;;;5101838;27;45334;-79
2023/09/01 04:59:22;;;;;;;;;3.25;1.75;;;;;;;;5100665;27;45383;-78
2023/09/01 05:01:47;;;;;;;;;1.25;1.00;;;;;;;;5083421;27;45311;-79
2023/09/01 05:04:14;;;;;;;;;1.75;1.25;;;;;;;;5101940;27;45271;-79
2023/09/01 05:06:39;;;;;;;;;2.25;2.00;;;;;;;;5101629;27;45456;-79
2023/09/01 05:09:05;;;;;;;;;3.75;3.00;;;;;;;;5101380;27;45269;-79
2023/09/01 05:11:30;;;;;;;;;1.00;1.00;;;;;;;;5101681;27;45334;-78
2023/09/01 05:13:55;;;;;;;;;2.50;2.00;;;;;;;;5101635;27;45209;-79
2023/09/01 05:16:20;;;;;;;;;3.00;2.00;;;;;;;;5101599;27;45417;-79
2023/09/01 05:18:46;;;;;;;;;1.00;1.00;;;;;;;;5101460;27;45273;-78
2023/09/01 05:21:11;;;;;;;;;4.00;2.00;;;;;;;;5101399;27;45288;-78
2023/09/01 05:23:37;;;;;;;;;2.75;1.25;;;;;;;;5101595;27;45517;-78
2023/09/01 05:26:02;;;;;;;;;1.75;1.75;;;;;;;;5100241;27;45386;-79
2023/09/01 05:28:27;;;;;;;;;1.00;1.00;;;;;;;;5082015;27;45260;-79
2023/09/01 05:30:55;;;;;;;;;3.00;3.00;;;;;;;;5068456;28;45866;-79
2023/09/01 05:33:20;;;;;;;;;3.33;3.00;;;;;;;;5080063;28;45454;-78
2023/09/01 05:35:45;;;;;;;;;2.00;2.00;;;;;;;;5080380;28;45236;-79
2023/09/01 05:38:10;;;;;;;;;1.00;1.00;;;;;;;;5062440;28;47473;-78
2023/09/01 05:40:36;;;;;;;;;2.75;2.00;;;;;;;;5080441;28;45295;-78
2023/09/01 05:43:01;;;;;;;;;1.00;1.00;;;;;;;;5076119;28;45443;-78
2023/09/01 05:45:26;;;;;;;;;2.00;1.75;;;;;;;;5053244;28;46397;-79
2023/09/01 05:47:52;;;;;;;;;3.00;3.00;;;;;;;;5065999;28;45322;-78
2023/09/01 05:50:18;;;;;;;;;2.50;2.50;;;;;;;;5069830;28;45401;-78
2023/09/01 05:52:43;;;;;;;;;3.25;2.50;;;;;;;;5080646;28;45329;-77
2023/09/01 05:55:09;;;;;;;;;2.75;2.75;;;;;;;;5080079;28;45325;-77
2023/09/01 05:57:34;;;;;;;;;2.00;2.00;;;;;;;;5080335;28;45795;-76
2023/09/01 05:59:59;;;;;;;;;2.00;1.75;;;;;;;;5062237;28;45873;-77
2023/09/01 06:02:24;;;;;;;;;1.50;1.50;;;;;;;;5062218;28;45336;-77
2023/09/01 06:04:49;;;;;;;;;1.25;1.25;;;;;;;;5080367;28;45265;-76
2023/09/01 06:07:14;;;;;;;;;2.50;2.50;;;;;;;;5080305;28;45257;-77
2023/09/01 06:09:40;;;;;;;;;3.00;3.00;;;;;;;;5079579;28;45427;-77
2023/09/01 06:12:05;;;;;;;;;3.00;2.25;;;;;;;;5080398;28;45263;-77
2023/09/01 06:14:30;;;;;;;;;2.00;2.00;;;;;;;;5079865;28;45146;-77
2023/09/01 06:16:56;;;;;;;;;2.25;1.00;;;;;;;;5080217;28;46281;-77
2023/09/01 06:19:21;;;;;;;;;1.25;1.25;;;;;;;;5080206;28;45339;-77
2023/09/01 06:21:46;;;;;;;;;2.00;2.00;;;;;;;;5079305;28;45472;-78
2023/09/01 06:24:11;;;;;;;;;1.50;1.50;;;;;;;;5044620;28;45987;-77
2023/09/01 06:26:36;;;;;;;;;3.00;1.00;;;;;;;;5074043;28;45887;-77
2023/09/01 06:29:03;;;;;;;;;2.00;2.00;;;;;;;;5086101;27;45252;-77
2023/09/01 06:31:31;;;;;;;;;1.00;0.50;;;;;;;;5088907;27;45215;-78
2023/09/01 06:33:56;;;;;;;;;2.00;2.00;;;;;;;;5050249;28;46468;-78
2023/09/01 06:36:21;;;;;;;;;2.00;2.00;;;;;;;;5067725;28;45408;-78
2023/09/01 06:38:48;;;;;;;;;2.25;1.00;;;;;;;;5069023;28;46492;-79
2023/09/01 06:41:13;;;;;;;;;3.00;3.00;;;;;;;;5075734;28;45514;-79
2023/09/01 06:43:38;;;;;;;;;1.00;1.00;;;;;;;;5068871;28;45368;-78
2023/09/01 06:46:03;;;;;;;;;1.00;1.00;;;;;;;;5069438;28;45335;-78
2023/09/01 06:48:30;;;;;;;;;0.75;0.25;;;;;;;;5071540;28;45252;-77
2023/09/01 06:50:56;;;;;;;;;3.25;1.00;;;;;;;;5079783;28;45252;-77
2023/09/01 06:53:21;;;;;;;;;2.00;1.00;;;;;;;;5079589;28;45425;-78
2023/09/01 06:55:49;;;;;;;;;1.00;1.00;;;;;;;;5061030;28;47258;-77
2023/09/01 06:58:14;;;;;;;;;4.00;2.00;;;;;;;;5079565;28;45326;-78
2023/09/01 07:00:40;;;;;;;;;2.00;2.00;;;;;;;;5079774;28;45457;-77
2023/09/01 07:03:05;;;;;;;;;3.50;2.00;;;;;;;;5079413;28;45495;-77
2023/09/01 07:05:30;;;;;;;;;1.00;1.00;;;;;;;;5079436;28;45271;-77
2023/09/01 07:07:55;;;;;;;;;2.00;2.00;;;;;;;;5079414;28;45363;-77
2023/09/01 07:10:20;;;;;;;;;2.00;2.00;;;;;;;;5074697;28;45977;-77
2023/09/01 07:12:46;;;;;;;;;4.00;2.00;;;;;;;;5065011;28;45453;-77
2023/09/01 07:15:11;;;;;;;;;3.50;1.00;;;;;;;;5059021;28;46396;-76
2023/09/01 07:17:36;;;;;;;;;1.00;1.00;;;;;;;;5059101;28;45350;-77
2023/09/01 07:20:03;;;;;;;;;1.75;0.50;;;;;;;;5059239;28;45343;-76
2023/09/01 07:22:28;;;;;;;;;1.00;1.00;;;;;;;;5061129;28;45347;-77
2023/09/01 07:24:53;;;;;;;;;1.00;1.00;;;;;;;;5061985;28;45369;-78
2023/09/01 07:27:18;;;;;;;;;1.75;1.00;;;;;;;;5062207;28;45360;-77
2023/09/01 07:29:48;;;;;;;;;1.25;1.00;;;;;;;;5086908;27;45328;-78
2023/09/01 07:32:13;;;;;;;;;1.00;1.00;;;;;;;;5103177;27;45434;-78
2023/09/01 07:34:38;;;;;;;;;0.75;0.75;;;;;;;;5101838;27;46326;-78
2023/09/01 07:37:03;;;;;;;;;1.00;1.00;;;;;;;;5103079;27;45389;-77
2023/09/01 07:39:29;;;;;;;;;2.00;1.25;;;;;;;;5084688;27;45344;-78
2023/09/01 07:41:54;;;;;;;;;1.25;1.25;;;;;;;;5102929;27;45413;-78
2023/09/01 07:44:20;;;;;;;;;1.00;1.00;;;;;;;;5102674;27;46204;-79
2023/09/01 07:46:45;;;;;;;;;1.25;1.25;;;;;;;;5103068;27;45421;-78
2023/09/01 07:49:10;;;;;;;;;1.00;1.00;;;;;;;;5084668;27;45520;-76
2023/09/01 07:51:38;;;;;;;;;2.25;1.25;;;;;;;;5102507;27;45569;-76
2023/09/01 07:54:03;;;;;;;;;1.00;1.00;;;;;;;;5102468;27;45374;-76
2023/09/01 07:56:29;;;;;;;;;0.75;0.75;;;;;;;;5102688;27;45249;-77
2023/09/01 07:58:54;;;;;;;;;0.00;0.00;;;;;;;;5102995;27;45318;-77
2023/09/01 08:01:19;;;;;;;;;0.25;0.25;;;;;;;;5103769;27;45294;-78
2023/09/01 08:03:44;;;;;;;;;0.50;0.50;;;;;;;;5086908;27;48637;-78
2023/09/01 08:06:09;;;;;;;;;1.00;1.00;;;;;;;;5102550;27;45389;-78
2023/09/01 08:08:35;;;;;;;;;1.75;1.75;;;;;;;;5084207;27;45330;-77
2023/09/01 08:11:00;;;;;;;;;0.00;0.00;;;;;;;;5084550;27;46012;-77
2023/09/01 08:13:26;;;;;;;;;0.75;0.75;;;;;;;;5102488;27;45473;-77
2023/09/01 08:15:51;;;;;;;;;1.00;1.00;;;;;;;;5102653;27;45293;-78
2023/09/01 08:18:16;;;;;;;;;1.00;1.00;;;;;;;;5103133;27;45358;-78
2023/09/01 08:20:42;;;;;;;;;1.00;1.00;;;;;;;;5102312;27;45199;-78
2023/09/01 08:23:07;;;;;;;;;0.25;0.25;;;;;;;;5102400;27;45373;-78
2023/09/01 08:25:35;;;;;;;;;0.25;0.25;;;;;;;;5102540;27;45240;-78
2023/09/01 08:28:00;;;;;;;;;1.00;1.00;;;;;;;;5075944;28;45458;-78
2023/09/01 08:30:26;;;;;;;;;1.25;0.50;;;;;;;;5099882;27;45391;-76
2023/09/01 08:32:51;;;;;;;;;1.00;1.00;;;;;;;;5101531;27;45334;-78
2023/09/01 08:35:17;;;;;;;;;1.00;0.00;;;;;;;;5101817;27;45264;-76
2023/09/01 08:37:42;;;;;;;;;3.00;1.25;;;;;;;;5087788;27;45692;-76
2023/09/01 08:40:11;;;;;;;;;1.00;1.00;;;;;;;;5061103;28;45363;-76
2023/09/01 08:42:43;;;;;;;;;1.00;1.00;;;;;;;;5060982;28;46210;-77
2023/09/01 08:45:09;;;;;;;;;0.75;0.00;;;;;;;;5061304;28;45382;-77
2023/09/01 08:47:42;;;;;;;;;1.00;1.00;;;;;;;;5061389;28;45320;-76
2023/09/01 08:50:07;;;;;;;;;1.00;1.00;;;;;;;;5061158;28;45289;-76
2023/09/01 08:52:34;;;;;;;;;2.00;0.00;;;;;;;;5061061;28;45653;-75
2023/09/01 08:54:59;;;;;;;;;0.75;0.75;;;;;;;;5042506;28;45312;-76
2023/09/01 08:57:25;;;;;;;;;1.00;1.00;;;;;;;;5043189;28;45506;-75
2023/09/01 08:59:50;;;;;;;;;1.00;1.00;;;;;;;;5065513;28;45396;-76
2023/09/01 09:02:16;;;;;;;;;0.00;0.00;;;;;;;;5069756;28;45355;-77
2023/09/01 09:04:41;;;;;;;;;1.00;1.00;;;;;;;;5070284;28;45607;-76
2023/09/01 09:07:13;;;;;;;;;0.00;0.00;;;;;;;;5068555;28;45509;-76
2023/09/01 09:09:53;;;;;;;;;0.00;0.00;;;;;;;;5067208;28;45470;-75
2023/09/01 09:12:20;;;;;;;;;0.00;0.00;;;;;;;;5052678;28;47458;-76
2023/09/01 09:14:55;;;;;;;;;0.25;0.25;;;;;;;;5081044;28;45358;-75
2023/09/01 09:17:22;;;;;;;;;2.00;1.00;;;;;;;;5081389;28;45280;-75
2023/09/01 09:19:51;;;;;;;;;0.50;0.50;;;;;;;;5081005;28;45355;-76
2023/09/01 09:22:16;;;;;;;;;0.00;0.00;;;;;;;;5080831;28;45346;-76
2023/09/01 09:24:42;;;;;;;;;2.00;1.00;;;;;;;;5062440;28;45272;-78
2023/09/01 09:27:13;;;;;;;;;1.00;1.00;;;;;;;;5062783;28;45265;-76
2023/09/01 09:29:40;;;;;;;;;1.75;1.75;;;;;;;;5092335;27;45315;-77
2023/09/01 09:32:18;;;;;;;;;1.00;1.00;;;;;;;;5088388;27;45367;-76
2023/09/01 09:35:02;;;;;;;;;1.25;1.25;;;;;;;;5063727;27;46385;-76
2023/09/01 09:37:30;;;;;;;;;0.00;0.00;;;;;;;;5069782;27;45556;-78
2023/09/01 09:40:16;;;;;;;;;1.00;1.00;;;;;;;;5074229;27;45379;-75
2023/09/01 09:42:42;;;;;;;;;1.00;1.00;;;;;;;;5049866;28;47334;-74
2023/09/01 09:45:31;;;;;;;;;1.00;1.00;;;;;;;;5041092;28;45439;-74
2023/09/01 09:47:57;;;;;;;;;1.00;1.00;;;;;;;;5053401;28;45185;-73
2023/09/01 09:50:24;;;;;;;;;2.00;1.00;;;;;;;;5063924;27;45610;-74
2023/09/01 09:52:53;;;;;;;;;0.00;0.00;;;;;;;;5070541;27;46026;-74
2023/09/01 09:55:24;;;;;;;;;1.25;1.25;;;;;;;;5069375;28;45399;-73
2023/09/01 09:57:50;;;;;;;;;0.00;0.00;;;;;;;;5068032;28;45431;-74
2023/09/01 10:00:16;;;;;;;;;2.00;2.00;;;;;;;;5060060;28;45324;-74
2023/09/01 10:02:45;;;;;;;;;2.00;1.00;;;;;;;;5060175;28;45315;-74
2023/09/01 10:05:12;;;;;;;;;1.75;1.00;;;;;;;;5042303;28;45468;-74
2023/09/01 10:07:38;;;;;;;;;2.00;2.00;;;;;;;;5060099;28;45220;-74
2023/09/01 10:10:03;;;;;;;;;1.00;1.00;;;;;;;;5059745;28;45263;-74
2023/09/01 10:12:29;;;;;;;;;1.00;0.50;;;;;;;;5047808;28;47006;-74
2023/09/01 10:14:55;;;;;;;;;2.00;2.00;;;;;;;;5066738;28;45249;-74
2023/09/01 10:17:22;;;;;;;;;1.00;1.00;;;;;;;;5065164;28;45405;-76
2023/09/01 10:19:47;;;;;;;;;2.50;2.50;;;;;;;;5069956;28;45367;-75
2023/09/01 10:22:15;;;;;;;;;2.00;2.00;;;;;;;;5079801;28;45479;-75
2023/09/01 10:25:00;;;;;;;;;0.00;0.00;;;;;;;;5079874;28;45391;-75
2023/09/01 10:27:25;;;;;;;;;1.00;1.00;;;;;;;;5083487;28;45403;-74
2023/09/01 10:29:53;;;;;;;;;0.25;0.25;;;;;;;;5093645;27;45310;-74
2023/09/01 10:32:19;;;;;;;;;1.00;1.00;;;;;;;;5100707;27;45308;-74
2023/09/01 10:34:53;;;;;;;;;1.00;1.00;;;;;;;;5082409;27;45345;-75
2023/09/01 10:37:26;;;;;;;;;0.00;0.00;;;;;;;;5100955;27;45319;-74
2023/09/01 10:39:51;;;;;;;;;1.00;1.00;;;;;;;;5100367;27;45364;-75
2023/09/01 10:42:16;;;;;;;;;3.00;2.00;;;;;;;;5099957;27;46217;-75
2023/09/01 10:44:44;;;;;;;;;0.25;0.25;;;;;;;;5081823;27;45421;-75
2023/09/01 10:47:28;;;;;;;;;0.00;0.00;;;;;;;;5100351;27;45279;-75
2023/09/01 10:49:55;;;;;;;;;2.00;2.00;;;;;;;;5100103;27;45646;-74
2023/09/01 10:52:20;;;;;;;;;1.00;1.00;;;;;;;;5092306;27;45405;-76
2023/09/01 10:54:45;;;;;;;;;1.50;1.50;;;;;;;;5079457;28;45368;-75
2023/09/01 10:57:12;;;;;;;;;1.00;1.00;;;;;;;;5083258;28;45459;-76
2023/09/01 10:59:37;;;;;;;;;0.00;0.00;;;;;;;;5083223;28;45744;-75
2023/09/01 11:02:22;;;;;;;;;1.00;1.00;;;;;;;;5083100;28;45454;-74
2023/09/01 11:04:47;;;;;;;;;3.00;1.75;;;;;;;;5065031;28;45417;-75
2023/09/01 11:07:13;;;;;;;;;2.75;2.75;;;;;;;;5083275;28;45303;-74
2023/09/01 11:09:44;;;;;;;;;1.50;1.50;;;;;;;;5082955;28;45522;-75
2023/09/01 11:12:10;;;;;;;;;1.00;1.00;;;;;;;;5078796;27;46407;-74
2023/09/01 11:14:36;;;;;;;;;1.50;1.50;;;;;;;;5080726;27;45481;-75
2023/09/01 11:17:03;;;;;;;;;3.00;3.00;;;;;;;;5078132;27;45528;-75
2023/09/01 11:19:29;;;;;;;;;2.00;1.00;;;;;;;;5051531;28;47294;-75
2023/09/01 11:21:54;;;;;;;;;1.00;1.00;;;;;;;;5056551;28;48805;-77
2023/09/01 11:24:20;;;;;;;;;3.00;2.00;;;;;;;;5069805;27;45211;-74
2023/09/01 11:26:45;;;;;;;;;2.00;2.00;;;;;;;;5062642;28;45315;-74
2023/09/01 11:29:16;;;;;;;;;2.00;2.00;;;;;;;;5059074;27;47169;-75
2023/09/01 11:31:42;;;;;;;;;2.75;2.75;;;;;;;;5103238;27;45404;-74
2023/09/01 11:34:07;;;;;;;;;0.50;0.50;;;;;;;;5103195;27;45274;-74
2023/09/01 11:36:33;;;;;;;;;0.00;0.00;;;;;;;;5103527;27;45353;-74
2023/09/01 11:38:58;;;;;;;;;1.75;1.75;;;;;;;;5103190;27;45302;-74
2023/09/01 11:41:26;;;;;;;;;0.50;0.50;;;;;;;;5103357;27;45301;-74
2023/09/01 11:43:52;;;;;;;;;0.75;0.75;;;;;;;;5084677;27;45311;-75
2023/09/01 11:46:18;;;;;;;;;0.50;0.50;;;;;;;;5103276;27;45300;-75
2023/09/01 11:48:46;;;;;;;;;1.75;1.75;;;;;;;;5103151;27;45435;-74
2023/09/01 11:51:12;;;;;;;;;2.25;2.25;;;;;;;;5102746;27;45349;-74
2023/09/01 11:53:37;;;;;;;;;5.00;4.25;;;;;;;;5067416;28;45354;-74
2023/09/01 11:56:19;;;;;;;;;2.00;2.00;;;;;;;;5061698;28;45514;-74
2023/09/01 11:58:47;;;;;;;;;1.25;1.25;;;;;;;;5062037;28;45480;-75
2023/09/01 12:01:13;;;;;;;;;6.50;5.50;;;;;;;;5061560;28;45419;-77
2023/09/01 12:03:42;;;;;;;;;2.00;2.00;;;;;;;;5042891;28;45506;-74
2023/09/01 12:06:16;;;;;;;;;0.00;0.00;;;;;;;;5061727;28;45329;-74
2023/09/01 12:08:42;;;;;;;;;2.00;1.25;;;;;;;;5060800;28;45948;-75
2023/09/01 12:11:07;;;;;;;;;0.50;0.50;;;;;;;;5043534;28;47281;-76
2023/09/01 12:13:33;;;;;;;;;0.00;0.00;;;;;;;;5043186;28;45331;-75
2023/09/01 12:16:01;;;;;;;;;1.00;0.00;;;;;;;;5061767;28;45297;-74
2023/09/01 12:18:33;;;;;;;;;0.25;0.25;;;;;;;;5061581;28;45368;-75
2023/09/01 12:20:58;;;;;;;;;1.00;1.00;;;;;;;;5061585;28;45420;-75
2023/09/01 12:23:30;;;;;;;;;1.00;1.00;;;;;;;;5043274;28;45190;-75
2023/09/01 12:25:56;;;;;;;;;0.75;0.75;;;;;;;;5043737;28;45304;-75
2023/09/01 12:28:22;;;;;;;;;0.00;0.00;;;;;;;;5062696;27;45379;-76
2023/09/01 12:30:47;;;;;;;;;1.00;1.00;;;;;;;;5084026;27;45343;-75
2023/09/01 12:33:12;;;;;;;;;2.00;0.25;;;;;;;;5102241;27;45249;-75
2023/09/01 12:35:39;;;;;;;;;0.25;0.25;;;;;;;;5102391;27;45240;-75
2023/09/01 12:38:04;;;;;;;;;1.00;0.00;;;;;;;;5102072;27;45476;-75
2023/09/01 12:40:29;;;;;;;;;1.00;1.00;;;;;;;;5101695;27;45406;-75
2023/09/01 12:42:54;;;;;;;;;2.00;0.50;;;;;;;;5102037;27;45300;-75
2023/09/01 12:45:20;;;;;;;;;1.00;1.00;;;;;;;;5102349;27;45342;-75
2023/09/01 12:47:45;;;;;;;;;0.25;0.25;;;;;;;;5102142;27;45257;-75
2023/09/01 12:50:10;;;;;;;;;0.50;0.50;;;;;;;;5101794;27;45388;-74
2023/09/01 12:52:35;;;;;;;;;1.00;1.00;;;;;;;;5102005;27;45293;-75
2023/09/01 12:55:00;;;;;;;;;1.00;1.00;;;;;;;;5083315;27;45298;-75
2023/09/01 12:57:25;;;;;;;;;0.50;0.50;;;;;;;;5101918;27;45383;-74
2023/09/01 12:59:51;;;;;;;;;1.00;1.00;;;;;;;;5101828;27;45470;-74
2023/09/01 13:02:17;;;;;;;;;0.25;0.00;;;;;;;;5101840;27;45294;-74
2023/09/01 13:04:43;;;;;;;;;0.00;0.00;;;;;;;;5101941;27;45333;-74
2023/09/01 13:07:10;;;;;;;;;0.00;0.00;;;;;;;;5101595;27;45367;-74
2023/09/01 13:09:35;;;;;;;;;1.00;1.00;;;;;;;;5101429;27;46101;-74
2023/09/01 13:12:00;;;;;;;;;1.25;1.25;;;;;;;;5101735;27;45410;-74
2023/09/01 13:14:25;;;;;;;;;1.00;1.00;;;;;;;;5083327;27;45331;-73
2023/09/01 13:16:51;;;;;;;;;1.00;1.00;;;;;;;;5083040;27;47109;-74
2023/09/01 13:19:16;;;;;;;;;0.50;0.50;;;;;;;;5100338;27;45963;-75
2023/09/01 13:21:41;;;;;;;;;1.00;1.00;;;;;;;;5101154;27;45338;-75
2023/09/01 13:24:07;;;;;;;;;2.00;2.00;;;;;;;;5082927;27;45370;-76
2023/09/01 13:26:32;;;;;;;;;3.00;2.00;;;;;;;;5101421;27;45369;-75
2023/09/01 13:28:58;;;;;;;;;2.50;1.00;;;;;;;;5095411;27;45279;-74
2023/09/01 13:31:24;;;;;;;;;0.20;0.00;;;;;;;;5080949;28;45320;-73
2023/09/01 13:33:49;;;;;;;;;0.25;0.25;;;;;;;;5080959;28;45292;-74
2023/09/01 13:36:14;;;;;;;;;0.00;0.00;;;;;;;;5062118;28;46426;-74
2023/09/01 13:38:39;;;;;;;;;0.00;0.00;;;;;;;;5080448;28;46299;-73
2023/09/01 13:41:07;;;;;;;;;0.00;0.00;;;;;;;;5080937;28;45307;-75
2023/09/01 13:43:32;;;;;;;;;1.00;1.00;;;;;;;;5080375;28;45401;-75
2023/09/01 13:46:15;;;;;;;;;0.00;0.00;;;;;;;;5062297;28;45989;-74
2023/09/01 13:48:41;;;;;;;;;1.00;1.00;;;;;;;;5080342;28;45497;-74
2023/09/01 13:51:06;;;;;;;;;0.00;0.00;;;;;;;;5062231;28;45953;-74
2023/09/01 13:53:31;;;;;;;;;0.75;0.75;;;;;;;;5080533;28;45345;-74
2023/09/01 13:55:56;;;;;;;;;1.00;1.00;;;;;;;;5063049;28;45394;-74
2023/09/01 13:58:21;;;;;;;;;1.00;0.00;;;;;;;;5060213;28;46298;-73
2023/09/01 14:00:46;;;;;;;;;0.75;0.75;;;;;;;;5060002;28;45279;-74
2023/09/01 14:03:12;;;;;;;;;0.00;0.00;;;;;;;;5061665;28;45434;-74
2023/09/01 14:05:37;;;;;;;;;0.00;0.00;;;;;;;;5066227;28;45326;-75
2023/09/01 14:08:02;;;;;;;;;0.25;0.25;;;;;;;;5061448;28;48732;-74
2023/09/01 14:10:27;;;;;;;;;0.00;0.00;;;;;;;;5079835;28;45464;-74
2023/09/01 14:12:52;;;;;;;;;0.75;0.75;;;;;;;;5079641;28;45371;-75
2023/09/01 14:15:18;;;;;;;;;0.50;0.50;;;;;;;;5061433;28;46077;-76
2023/09/01 14:17:45;;;;;;;;;2.00;1.00;;;;;;;;5079706;28;46272;-77
2023/09/01 14:20:10;;;;;;;;;0.00;0.00;;;;;;;;5079640;28;45209;-76
2023/09/01 14:22:35;;;;;;;;;0.00;0.00;;;;;;;;5079807;28;45386;-75
2023/09/01 14:25:00;;;;;;;;;0.75;0.75;;;;;;;;5070583;28;45428;-76
2023/09/01 14:27:25;;;;;;;;;0.25;0.25;;;;;;;;5074968;28;46003;-75
2023/09/01 14:29:51;;;;;;;;;0.50;0.50;;;;;;;;5065208;28;45475;-76
2023/09/01 14:32:16;;;;;;;;;1.00;1.00;;;;;;;;5061293;28;45410;-76
2023/09/01 14:34:43;;;;;;;;;0.00;0.00;;;;;;;;5079508;28;45388;-76
2023/09/01 14:37:08;;;;;;;;;0.25;0.25;;;;;;;;5079559;28;46105;-76
2023/09/01 14:39:33;;;;;;;;;0.00;0.00;;;;;;;;5079087;28;45486;-76